createdAt,value
2023-05-19T00:01:37.778Z,101974.00
2023-05-19T00:04:07.183Z,101977.00
2023-05-19T00:06:37.264Z,101940.00
2023-05-19T00:09:07.081Z,101964.00
2023-05-19T00:11:36.324Z,101941.00
2023-05-19T00:14:06.046Z,101972.00
2023-05-19T00:16:34.841Z,101967.00
2023-05-19T00:19:05.449Z,101974.00
2023-05-19T00:21:33.997Z,101961.00
2023-05-19T00:24:03.546Z,101965.00
2023-05-19T00:26:31.586Z,101974.00
2023-05-19T00:28:59.627Z,101943.00
2023-05-19T00:31:27.615Z,101955.00
2023-05-19T00:33:55.618Z,101947.00
2023-05-19T00:36:23.834Z,101962.00
2023-05-19T00:38:52.356Z,101948.00
2023-05-19T00:41:22.795Z,101963.00
2023-05-19T00:43:52.054Z,101958.00
2023-05-19T00:46:20.433Z,101944.00
2023-05-19T00:48:48.465Z,101950.00
2023-05-19T00:51:17.314Z,101960.00
2023-05-19T00:53:49.472Z,101934.00
2023-05-19T00:56:18.444Z,101963.00
2023-05-19T00:58:52.326Z,101951.00
2023-05-19T01:01:21.819Z,101947.00
2023-05-19T01:03:50.434Z,101949.00
2023-05-19T01:06:19.379Z,101941.00
2023-05-19T01:08:47.619Z,101930.00
2023-05-19T01:11:15.566Z,101937.00
2023-05-19T01:13:43.952Z,101939.00
2023-05-19T01:16:18.899Z,101935.00
2023-05-19T01:18:56.523Z,101933.00
2023-05-19T01:22:01.174Z,101923.00
2023-05-19T01:25:08.687Z,101936.00
2023-05-19T01:27:48.281Z,101946.00
2023-05-19T01:30:30.101Z,101936.00
2023-05-19T01:33:02.092Z,101944.00
2023-05-19T01:35:30.838Z,101927.00
2023-05-19T01:38:00.200Z,101943.00
2023-05-19T01:40:29.484Z,101943.00
2023-05-19T01:42:59.841Z,101937.00
2023-05-19T01:45:31.040Z,101935.00
2023-05-19T01:48:01.775Z,101925.00
2023-05-19T01:50:30.371Z,101937.00
2023-05-19T01:52:59.992Z,101944.00
2023-05-19T01:55:28.652Z,101935.00
2023-05-19T01:58:05.365Z,101943.00
2023-05-19T02:00:46.401Z,101942.00
2023-05-19T02:03:30.837Z,101949.00
2023-05-19T02:06:11.363Z,101946.00
2023-05-19T02:08:45.570Z,101938.00
2023-05-19T02:11:19.243Z,101936.00
2023-05-19T02:13:51.423Z,101927.00
2023-05-19T02:16:23.128Z,101930.00
2023-05-19T02:18:54.086Z,101946.00
2023-05-19T02:21:22.206Z,101940.00
2023-05-19T02:23:50.631Z,101935.00
2023-05-19T02:26:18.882Z,101936.00
2023-05-19T02:28:47.006Z,101929.00
2023-05-19T02:31:15.120Z,101936.00
2023-05-19T02:33:44.453Z,101957.00
2023-05-19T02:36:14.559Z,101949.00
2023-05-19T02:38:42.484Z,101942.00
2023-05-19T02:41:10.835Z,101932.00
2023-05-19T02:43:38.820Z,101917.00
2023-05-19T02:46:07.177Z,101919.00
2023-05-19T02:48:35.149Z,101915.00
2023-05-19T02:51:05.029Z,101925.00
2023-05-19T02:53:33.620Z,101934.00
2023-05-19T02:56:01.655Z,101932.00
2023-05-19T02:58:29.733Z,101908.00
2023-05-19T03:00:57.698Z,101916.00
2023-05-19T03:03:26.070Z,101926.00
2023-05-19T03:05:54.723Z,101913.00
2023-05-19T03:08:24.183Z,101937.00
2023-05-19T03:10:52.164Z,101915.00
2023-05-19T03:13:20.084Z,101918.00
2023-05-19T03:15:48.917Z,101903.00
2023-05-19T03:18:17.117Z,101919.00
2023-05-19T03:20:45.646Z,101940.00
2023-05-19T03:23:13.636Z,101919.00
2023-05-19T03:25:43.123Z,101904.00
2023-05-19T03:28:11.176Z,101925.00
2023-05-19T03:30:39.172Z,101896.00
2023-05-19T03:33:07.271Z,101899.00
2023-05-19T03:35:35.899Z,101901.00
2023-05-19T03:38:03.892Z,101930.00
2023-05-19T03:40:32.192Z,101916.00
2023-05-19T03:43:02.179Z,101918.00
2023-05-19T03:45:30.182Z,101924.00
2023-05-19T03:47:58.372Z,101922.00
2023-05-19T03:50:27.398Z,101918.00
2023-05-19T03:52:55.480Z,101918.00
2023-05-19T03:55:23.471Z,101918.00
2023-05-19T03:57:52.733Z,101907.00
2023-05-19T04:00:22.186Z,101876.00
2023-05-19T04:02:50.377Z,101913.00
2023-05-19T04:05:18.653Z,101924.00
2023-05-19T04:07:47.345Z,101903.00
2023-05-19T04:10:15.623Z,101925.00
2023-05-19T04:12:47.805Z,101919.00
2023-05-19T04:15:17.705Z,101927.00
2023-05-19T04:17:47.383Z,101901.00
2023-05-19T04:20:15.765Z,101886.00
2023-05-19T04:22:43.858Z,101877.00
2023-05-19T04:25:12.064Z,101924.00
2023-05-19T04:27:40.084Z,101929.00
2023-05-19T04:30:09.488Z,101903.00
2023-05-19T04:32:37.824Z,101938.00
2023-05-19T04:35:07.859Z,101932.00
2023-05-19T04:37:37.447Z,101914.00
2023-05-19T04:40:09.429Z,101949.00
2023-05-19T04:42:37.563Z,101913.00
2023-05-19T04:45:08.843Z,101938.00
2023-05-19T04:47:38.188Z,101933.00
2023-05-19T04:50:10.419Z,101945.00
2023-05-19T04:52:38.787Z,101934.00
2023-05-19T04:55:08.695Z,101922.00
2023-05-19T04:57:37.644Z,101938.00
2023-05-19T05:00:09.503Z,101942.00
2023-05-19T05:02:38.439Z,101936.00
2023-05-19T05:05:10.543Z,101926.00
2023-05-19T05:07:38.539Z,101931.00
2023-05-19T05:10:08.209Z,101924.00
2023-05-19T05:12:36.955Z,101923.00
2023-05-19T05:15:06.990Z,101920.00
2023-05-19T05:17:35.799Z,101926.00
2023-05-19T05:20:04.677Z,101931.00
2023-05-19T05:22:34.777Z,101930.00
2023-05-19T05:25:03.475Z,101935.00
2023-05-19T05:27:31.446Z,101929.00
2023-05-19T05:29:59.556Z,101924.00
2023-05-19T05:32:27.937Z,101927.00
2023-05-19T05:34:56.188Z,101930.00
2023-05-19T05:37:24.741Z,101929.00
2023-05-19T05:39:54.658Z,101931.00
2023-05-19T05:42:22.827Z,101921.00
2023-05-19T05:44:51.054Z,101909.00
2023-05-19T05:47:19.619Z,101914.00
2023-05-19T05:49:48.811Z,101916.00
2023-05-19T05:52:18.283Z,101902.00
2023-05-19T05:54:49.615Z,101919.00
2023-05-19T05:57:19.635Z,101876.00
2023-05-19T05:59:47.907Z,101898.00
2023-05-19T06:02:16.518Z,101898.00
2023-05-19T06:04:45.488Z,101924.00
2023-05-19T06:07:13.504Z,101928.00
2023-05-19T06:09:41.614Z,101935.00
2023-05-19T06:12:12.750Z,101919.00
2023-05-19T06:14:43.576Z,101930.00
2023-05-19T06:17:11.897Z,101935.00
2023-05-19T06:19:40.282Z,101918.00
2023-05-19T06:22:09.003Z,101912.00
2023-05-19T06:24:39.346Z,101923.00
2023-05-19T06:27:07.706Z,101937.00
2023-05-19T06:29:35.877Z,101917.00
2023-05-19T06:32:06.416Z,101902.00
2023-05-19T06:34:34.670Z,101920.00
2023-05-19T06:37:05.227Z,101929.00
2023-05-19T06:39:33.236Z,101935.00
2023-05-19T06:42:01.460Z,101930.00
2023-05-19T06:44:29.500Z,101940.00
2023-05-19T06:46:57.718Z,101934.00
2023-05-19T06:49:29.467Z,101935.00
2023-05-19T06:51:57.496Z,101921.00
2023-05-19T06:54:25.623Z,101927.00
2023-05-19T06:56:55.856Z,101935.00
2023-05-19T06:59:23.910Z,101922.00
2023-05-19T07:01:52.033Z,101937.00
2023-05-19T07:04:20.042Z,101924.00
2023-05-19T07:06:50.390Z,101934.00
2023-05-19T07:09:18.314Z,101938.00
2023-05-19T07:11:46.830Z,101919.00
2023-05-19T07:14:14.724Z,101943.00
2023-05-19T07:16:42.819Z,101933.00
2023-05-19T07:19:11.050Z,101933.00
2023-05-19T07:21:39.649Z,101941.00
2023-05-19T07:24:09.334Z,101928.00
2023-05-19T07:26:37.196Z,101925.00
2023-05-19T07:29:05.571Z,101933.00
2023-05-19T07:31:33.388Z,101924.00
2023-05-19T07:34:01.334Z,101927.00
2023-05-19T07:36:29.121Z,101924.00
2023-05-19T07:38:57.172Z,101918.00
2023-05-19T07:41:26.694Z,101927.00
2023-05-19T07:43:54.543Z,101909.00
2023-05-19T07:46:23.110Z,101920.00
2023-05-19T07:48:51.103Z,101922.00
2023-05-19T07:51:19.386Z,101917.00
2023-05-19T07:53:47.881Z,101918.00
2023-05-19T07:56:15.829Z,101927.00
2023-05-19T07:58:45.117Z,101919.00
2023-05-19T08:01:13.054Z,101916.00
2023-05-19T08:03:41.087Z,101912.00
2023-05-19T08:06:08.908Z,101922.00
2023-05-19T08:08:36.887Z,101914.00
2023-05-19T08:11:05.268Z,101916.00
2023-05-19T08:13:34.702Z,101925.00
2023-05-19T08:16:03.965Z,101921.00
2023-05-19T08:18:31.955Z,101924.00
2023-05-19T08:20:59.995Z,101917.00
2023-05-19T08:23:27.805Z,101902.00
2023-05-19T08:25:55.780Z,101896.00
2023-05-19T08:28:23.589Z,101918.00
2023-05-19T08:30:52.491Z,101905.00
2023-05-19T08:33:22.962Z,101908.00
2023-05-19T08:35:51.176Z,101909.00
2023-05-19T08:38:19.023Z,101911.00
2023-05-19T08:40:48.384Z,101908.00
2023-05-19T08:43:16.645Z,101897.00
2023-05-19T08:45:46.829Z,101911.00
2023-05-19T08:48:21.429Z,101899.00
2023-05-19T08:50:58.091Z,101896.00
2023-05-19T08:53:33.088Z,101885.00
2023-05-19T08:56:10.173Z,101893.00
2023-05-19T08:58:40.445Z,101886.00
2023-05-19T09:01:08.788Z,101880.00
2023-05-19T09:03:39.559Z,101886.00
2023-05-19T09:06:08.909Z,101894.00
2023-05-19T09:08:37.231Z,101883.00
2023-05-19T09:11:05.540Z,101877.00
2023-05-19T09:13:33.548Z,101881.00
2023-05-19T09:16:02.063Z,101882.00
2023-05-19T09:18:31.249Z,101872.00
2023-05-19T09:21:02.838Z,101876.00
2023-05-19T09:23:33.660Z,101877.00
2023-05-19T09:26:05.055Z,101879.00
2023-05-19T09:28:35.257Z,101888.00
2023-05-19T09:31:10.532Z,101874.00
2023-05-19T09:33:42.130Z,101869.00
2023-05-19T09:36:13.170Z,101858.00
2023-05-19T09:38:41.372Z,101859.00
2023-05-19T09:41:10.218Z,101838.00
2023-05-19T09:43:38.149Z,101852.00
2023-05-19T09:46:07.367Z,101851.00
2023-05-19T09:48:36.822Z,101859.00
2023-05-19T09:51:09.658Z,101858.00
2023-05-19T09:53:39.555Z,101849.00
2023-05-19T09:56:10.514Z,101849.00
2023-05-19T09:58:39.080Z,101846.00
2023-05-19T10:01:08.256Z,101854.00
2023-05-19T10:03:37.457Z,101841.00
2023-05-19T10:06:07.394Z,101847.00
2023-05-19T10:08:35.951Z,101850.00
2023-05-19T10:11:06.559Z,101839.00
2023-05-19T10:13:40.097Z,101829.00
2023-05-19T10:16:09.859Z,101828.00
2023-05-19T10:18:40.087Z,101817.00
2023-05-19T10:21:09.509Z,101816.00
2023-05-19T10:23:37.479Z,101801.00
2023-05-19T10:26:07.788Z,101812.00
2023-05-19T10:28:41.630Z,101823.00
2023-05-19T10:31:14.615Z,101812.00
2023-05-19T10:34:07.076Z,101811.00
2023-05-19T10:36:45.733Z,101808.00
2023-05-19T10:39:19.155Z,101806.00
2023-05-19T10:42:02.334Z,101813.00
2023-05-19T10:44:55.464Z,101801.00
2023-05-19T10:47:26.867Z,101792.00
2023-05-19T10:49:55.790Z,101792.00
2023-05-19T10:52:26.109Z,101791.00
2023-05-19T10:54:55.115Z,101794.00
2023-05-19T10:57:30.700Z,101784.00
2023-05-19T11:00:00.627Z,101779.00
2023-05-19T11:02:42.025Z,101790.00
2023-05-19T11:05:11.532Z,101779.00
2023-05-19T11:07:43.376Z,101792.00
2023-05-19T11:10:12.066Z,101786.00
2023-05-19T11:12:46.808Z,101778.00
2023-05-19T11:15:16.683Z,101795.00
2023-05-19T11:17:49.397Z,101787.00
2023-05-19T11:20:25.019Z,101793.00
2023-05-19T11:23:05.746Z,101769.00
2023-05-19T11:25:47.922Z,101789.00
2023-05-19T11:28:20.272Z,101780.00
2023-05-19T11:30:50.622Z,101777.00
2023-05-19T11:33:19.848Z,101773.00
2023-05-19T11:35:49.475Z,101783.00
2023-05-19T11:38:20.461Z,101777.00
2023-05-19T11:40:50.130Z,101795.00
2023-05-19T11:43:19.398Z,101779.00
2023-05-19T11:45:47.422Z,101787.00
2023-05-19T11:48:17.402Z,101776.00
2023-05-19T11:50:48.645Z,101780.00
2023-05-19T11:53:17.460Z,101769.00
2023-05-19T11:55:47.487Z,101760.00
2023-05-19T11:58:16.510Z,101770.00
2023-05-19T12:00:47.689Z,101747.00
2023-05-19T12:03:17.514Z,101762.00
2023-05-19T12:05:47.838Z,101765.00
2023-05-19T12:08:18.254Z,101762.00
2023-05-19T12:10:49.595Z,101773.00
2023-05-19T12:13:17.749Z,101766.00
2023-05-19T12:15:47.275Z,101758.00
2023-05-19T12:18:15.223Z,101763.00
2023-05-19T12:20:43.154Z,101755.00
2023-05-19T12:23:11.298Z,101752.00
2023-05-19T12:25:39.448Z,101737.00
2023-05-19T12:28:08.326Z,101759.00
2023-05-19T12:30:36.851Z,101744.00
2023-05-19T12:33:06.422Z,101737.00
2023-05-19T12:35:34.396Z,101724.00
2023-05-19T12:38:05.837Z,101725.00
2023-05-19T12:40:35.782Z,101730.00
2023-05-19T12:43:04.594Z,101737.00
2023-05-19T12:45:36.184Z,101719.00
2023-05-19T12:48:07.180Z,101727.00
2023-05-19T12:50:35.492Z,101732.00
2023-05-19T12:53:03.590Z,101725.00
2023-05-19T12:55:31.454Z,101715.00
2023-05-19T12:57:59.526Z,235518.00
2023-05-19T13:00:28.934Z,235518.00
2023-05-19T13:03:00.329Z,235518.00
2023-05-19T13:05:31.256Z,235518.00
2023-05-19T13:08:00.464Z,235518.00
2023-05-19T13:10:29.486Z,235518.00
2023-05-19T13:12:58.942Z,235518.00
2023-05-19T13:15:28.084Z,235518.00
2023-05-19T13:17:56.220Z,235518.00
2023-05-19T13:20:26.907Z,235518.00
2023-05-19T13:22:58.083Z,235518.00
2023-05-19T13:25:26.570Z,235518.00
2023-05-19T13:27:55.485Z,235518.00
2023-05-19T13:30:23.809Z,235518.00
2023-05-19T13:32:52.526Z,235518.00
2023-05-19T13:35:21.544Z,235518.00
2023-05-19T13:37:50.857Z,235518.00
2023-05-19T13:40:20.515Z,235518.00
2023-05-19T13:42:48.471Z,235518.00
2023-05-19T13:45:16.412Z,235518.00
2023-05-19T13:47:44.286Z,235518.00
2023-05-19T13:50:12.662Z,235518.00
2023-05-19T13:52:40.714Z,235518.00
2023-05-19T13:55:09.396Z,235518.00
2023-05-19T13:57:38.620Z,235518.00
2023-05-19T14:00:07.947Z,235518.00
2023-05-19T14:02:36.253Z,235518.00
2023-05-19T14:05:04.358Z,235518.00
2023-05-19T14:07:35.701Z,235518.00
2023-05-19T14:10:05.759Z,235516.00
2023-05-19T14:12:46.993Z,101709.00
2023-05-19T14:15:21.402Z,101708.00
2023-05-19T14:17:50.549Z,101707.00
2023-05-19T14:20:18.532Z,101700.00
2023-05-19T14:22:46.357Z,101698.00
2023-05-19T14:25:14.117Z,101691.00
2023-05-19T14:27:44.485Z,101677.00
2023-05-19T14:30:12.846Z,101687.00
2023-05-19T14:32:42.141Z,101694.00
2023-05-19T14:35:10.658Z,101684.00
2023-05-19T14:37:38.538Z,101694.00
2023-05-19T14:40:07.529Z,101689.00
2023-05-19T14:42:35.568Z,101681.00
2023-05-19T14:45:03.703Z,101679.00
2023-05-19T14:47:31.783Z,101678.00
2023-05-19T14:50:01.600Z,101681.00
2023-05-19T14:52:29.365Z,101678.00
2023-05-19T14:54:57.205Z,101690.00
2023-05-19T14:57:25.743Z,101685.00
2023-05-19T14:59:53.583Z,101690.00
2023-05-19T15:02:21.354Z,101685.00
2023-05-19T15:04:49.378Z,101689.00
2023-05-19T15:07:18.676Z,101690.00
2023-05-19T15:09:46.587Z,101685.00
2023-05-19T15:12:14.435Z,101682.00
2023-05-19T15:14:42.241Z,101684.00
2023-05-19T15:17:10.589Z,101679.00
2023-05-19T15:19:38.615Z,101680.00
2023-05-19T15:22:06.750Z,101691.00
2023-05-19T15:24:36.046Z,101688.00
2023-05-19T15:27:04.374Z,101682.00
2023-05-19T15:29:32.206Z,101687.00
2023-05-19T15:32:00.045Z,101680.00
2023-05-19T15:34:27.969Z,101684.00
2023-05-19T15:36:55.810Z,101694.00
2023-05-19T15:39:23.617Z,101692.00
2023-05-19T15:41:52.836Z,101682.00
2023-05-19T15:44:20.706Z,101691.00
2023-05-19T15:46:48.656Z,101677.00
2023-05-19T15:49:18.156Z,101681.00
2023-05-19T15:51:46.158Z,101685.00
2023-05-19T15:54:14.573Z,101680.00
2023-05-19T15:56:42.378Z,101683.00
2023-05-19T15:59:11.603Z,101681.00
2023-05-19T16:01:40.522Z,101688.00
2023-05-19T16:04:08.453Z,101678.00
2023-05-19T16:06:36.331Z,101680.00
2023-05-19T16:09:04.398Z,101680.00
2023-05-19T16:11:32.268Z,101670.00
2023-05-19T16:14:00.092Z,101665.00
2023-05-19T16:16:29.388Z,101669.00
2023-05-19T16:18:57.296Z,101666.00
2023-05-19T16:21:25.257Z,101659.00
2023-05-19T16:23:53.126Z,101659.00
2023-05-19T16:26:22.560Z,101657.00
2023-05-19T16:28:50.431Z,101658.00
2023-05-19T16:31:18.264Z,101645.00
2023-05-19T16:33:47.566Z,101655.00
2023-05-19T16:36:15.550Z,101653.00
2023-05-19T16:38:43.496Z,101642.00
2023-05-19T16:41:12.766Z,101662.00
2023-05-19T16:43:40.741Z,101646.00
2023-05-19T16:46:09.880Z,101655.00
2023-05-19T16:48:37.901Z,101654.00
2023-05-19T16:51:07.271Z,101653.00
2023-05-19T16:53:35.096Z,101659.00
2023-05-19T16:56:02.994Z,101659.00
2023-05-19T16:58:31.135Z,101651.00
2023-05-19T17:00:59.073Z,101656.00
2023-05-19T17:03:27.186Z,101661.00
2023-05-19T17:05:57.758Z,101654.00
2023-05-19T17:08:26.985Z,101660.00
2023-05-19T17:10:54.806Z,101656.00
2023-05-19T17:13:22.643Z,101654.00
2023-05-19T17:15:52.814Z,101659.00
2023-05-19T17:18:20.609Z,101656.00
2023-05-19T17:20:48.561Z,101657.00
2023-05-19T17:23:16.864Z,101653.00
2023-05-19T17:25:46.101Z,101645.00
2023-05-19T17:28:13.881Z,101652.00
2023-05-19T17:30:42.306Z,101658.00
2023-05-19T17:33:10.207Z,101661.00
2023-05-19T17:35:38.053Z,101663.00
2023-05-19T17:38:05.965Z,101655.00
2023-05-19T17:40:34.824Z,101654.00
2023-05-19T17:43:04.401Z,101661.00
2023-05-19T17:45:32.277Z,101651.00
2023-05-19T17:48:00.248Z,101664.00
2023-05-19T17:50:28.573Z,101647.00
2023-05-19T17:52:57.037Z,101655.00
2023-05-19T17:55:29.708Z,101654.00
2023-05-19T17:57:58.517Z,101659.00
2023-05-19T18:00:28.522Z,101651.00
2023-05-19T18:02:57.852Z,101651.00
2023-05-19T18:05:26.656Z,101655.00
2023-05-19T18:07:55.327Z,101648.00
2023-05-19T18:10:24.310Z,101646.00
2023-05-19T18:12:52.345Z,101643.00
2023-05-19T18:15:20.236Z,101652.00
2023-05-19T18:17:49.550Z,101657.00
2023-05-19T18:20:17.757Z,101649.00
2023-05-19T18:22:45.646Z,101640.00
2023-05-19T18:25:13.487Z,101649.00
2023-05-19T18:27:43.607Z,101637.00
2023-05-19T18:30:12.157Z,101640.00
2023-05-19T18:32:39.988Z,101650.00
2023-05-19T18:35:10.452Z,101654.00
2023-05-19T18:37:38.307Z,101650.00
2023-05-19T18:40:07.338Z,101647.00
2023-05-19T18:42:35.218Z,101661.00
2023-05-19T18:45:03.071Z,101673.00
2023-05-19T18:47:30.943Z,101665.00
2023-05-19T18:49:58.984Z,101665.00
2023-05-19T18:52:29.023Z,101675.00
2023-05-19T18:54:57.051Z,101667.00
2023-05-19T18:57:25.606Z,101673.00
2023-05-19T18:59:53.628Z,101676.00
2023-05-19T19:02:21.468Z,101670.00
2023-05-19T19:04:49.445Z,101678.00
2023-05-19T19:07:17.367Z,101675.00
2023-05-19T19:09:46.588Z,101681.00
2023-05-19T19:12:14.442Z,101682.00
2023-05-19T19:14:42.558Z,101684.00
2023-05-19T19:17:10.467Z,101644.00
2023-05-19T19:19:38.503Z,101683.00
2023-05-19T19:22:06.466Z,101682.00
2023-05-19T19:24:34.293Z,101686.00
2023-05-19T19:27:03.859Z,101682.00
2023-05-19T19:29:32.522Z,101692.00
2023-05-19T19:32:00.565Z,101684.00
2023-05-19T19:34:28.719Z,101696.00
2023-05-19T19:36:56.533Z,101693.00
2023-05-19T19:39:24.423Z,101701.00
2023-05-19T19:41:52.238Z,101697.00
2023-05-19T19:44:22.784Z,101699.00
2023-05-19T19:46:50.769Z,101702.00
2023-05-19T19:49:18.775Z,101705.00
2023-05-19T19:51:46.739Z,101705.00
2023-05-19T19:54:14.729Z,101703.00
2023-05-19T19:56:42.589Z,101700.00
2023-05-19T19:59:11.095Z,101716.00
2023-05-19T20:01:40.447Z,101712.00
2023-05-19T20:04:08.850Z,101717.00
2023-05-19T20:06:37.185Z,101712.00
2023-05-19T20:09:05.666Z,101713.00
2023-05-19T20:11:33.597Z,101715.00
2023-05-19T20:14:01.471Z,101710.00
2023-05-19T20:16:29.653Z,101704.00
2023-05-19T20:18:59.209Z,101708.00
2023-05-19T20:21:27.633Z,101716.00
2023-05-19T20:23:55.589Z,101712.00
2023-05-19T20:26:23.708Z,101709.00
2023-05-19T20:28:51.564Z,101710.00
2023-05-19T20:31:21.550Z,101722.00
2023-05-19T20:33:49.687Z,101725.00
2023-05-19T20:36:19.302Z,101718.00
2023-05-19T20:38:47.968Z,101724.00
2023-05-19T20:41:16.536Z,101729.00
2023-05-19T20:43:45.004Z,101736.00
2023-05-19T20:46:13.679Z,101731.00
2023-05-19T20:48:41.576Z,101732.00
2023-05-19T20:51:09.553Z,101739.00
2023-05-19T20:53:38.749Z,101737.00
2023-05-19T20:56:07.438Z,101742.00
2023-05-19T20:58:35.246Z,101736.00
2023-05-19T21:01:03.230Z,101730.00
2023-05-19T21:03:32.135Z,101735.00
2023-05-19T21:06:00.649Z,101742.00
2023-05-19T21:08:28.617Z,101741.00
2023-05-19T21:10:57.910Z,101747.00
2023-05-19T21:13:25.847Z,101736.00
2023-05-19T21:15:53.759Z,101733.00
2023-05-19T21:18:21.639Z,101736.00
2023-05-19T21:20:49.516Z,101741.00
2023-05-19T21:23:17.457Z,101735.00
2023-05-19T21:25:45.571Z,101729.00
2023-05-19T21:28:14.900Z,101731.00
2023-05-19T21:30:43.550Z,101736.00
2023-05-19T21:33:11.609Z,101735.00
2023-05-19T21:35:39.555Z,101737.00
2023-05-19T21:38:22.117Z,101744.00
2023-05-19T21:40:51.260Z,101748.00
2023-05-19T21:43:21.494Z,101749.00
2023-05-19T21:45:49.480Z,101742.00
2023-05-19T21:48:17.364Z,101742.00
2023-05-19T21:50:45.456Z,101754.00
2023-05-19T21:53:13.255Z,101752.00
2023-05-19T21:55:41.124Z,101762.00
2023-05-19T21:58:08.922Z,101756.00
2023-05-19T22:00:38.598Z,101753.00
2023-05-19T22:03:07.726Z,101749.00
2023-05-19T22:05:38.102Z,101760.00
2023-05-19T22:08:06.234Z,101756.00
2023-05-19T22:10:34.296Z,101762.00
2023-05-19T22:13:02.225Z,101738.00
2023-05-19T22:15:30.064Z,101748.00
2023-05-19T22:17:59.381Z,101757.00
2023-05-19T22:20:27.376Z,101746.00
2023-05-19T22:22:55.152Z,101762.00
2023-05-19T22:25:22.971Z,101766.00
2023-05-19T22:27:50.773Z,101756.00
2023-05-19T22:30:18.718Z,101754.00
2023-05-19T22:32:46.656Z,101746.00
2023-05-19T22:35:15.889Z,101756.00
2023-05-19T22:37:43.766Z,101747.00
2023-05-19T22:40:12.531Z,101755.00
2023-05-19T22:42:40.381Z,101749.00
2023-05-19T22:45:09.251Z,101750.00
2023-05-19T22:47:37.252Z,101758.00
2023-05-19T22:50:05.773Z,101762.00
2023-05-19T22:52:35.109Z,101761.00
2023-05-19T22:55:03.686Z,101769.00
2023-05-19T22:57:32.563Z,101761.00
2023-05-19T23:00:00.495Z,101765.00
2023-05-19T23:02:28.386Z,101780.00
2023-05-19T23:04:56.243Z,101770.00
2023-05-19T23:07:24.193Z,101769.00
2023-05-19T23:09:53.842Z,101780.00
2023-05-19T23:12:21.680Z,101776.00
2023-05-19T23:14:49.525Z,101780.00
2023-05-19T23:17:17.441Z,101781.00
2023-05-19T23:19:45.277Z,101779.00
2023-05-19T23:22:13.199Z,101767.00
2023-05-19T23:24:41.238Z,101777.00
2023-05-19T23:27:10.418Z,101795.00
2023-05-19T23:29:38.274Z,101771.00
2023-05-19T23:32:06.906Z,101781.00
2023-05-19T23:34:34.823Z,101783.00
2023-05-19T23:37:02.950Z,101786.00
2023-05-19T23:39:30.830Z,101784.00
2023-05-19T23:41:58.732Z,101791.00
2023-05-19T23:44:28.025Z,101785.00
2023-05-19T23:46:56.018Z,101795.00
2023-05-19T23:49:23.991Z,101784.00
2023-05-19T23:51:52.988Z,101781.00
2023-05-19T23:54:20.790Z,101783.00
2023-05-19T23:56:48.641Z,101781.00
2023-05-19T23:59:16.530Z,101780.00
